KMWH

Grant Co International Airport

Moses Lake, Washington, USA
KMWH 160538Z 1606/1706 01009KT P6SM BKN100 OVC120 FM161100 01009KT P6SM -RA SCT020 OVC040 FM161400 02009KT 4SM -RA BR SCT009 OVC015 FM161800 03007KT 3SM -RA BR SCT004 OVC008 FM170300 15005KT 5SM BR BKN008 OVC012
Issued Valid From Valid To
Dec-16 @ 05:38 UTC
(13 minutes ago)
Dec-16 @ 06:00 UTC
(in 9 minutes)
Dec-17 @ 06:00 UTC
(in 24 hours)
Dec-16 @ 06:00 to Dec-16 @ 11:00
KMWH 160538Z 1606/1706 01009KT P6SM BKN100 OVC120
Wind Visibility Clouds
10° at 9 knots Greater than 6 miles
  • Broken at 10,000' AGL
  • Overcast at 12,000' AGL
From Dec-16 @ 11:00 to Dec-16 @ 14:00
FM161100 01009KT P6SM -RA SCT020 OVC040
Wind Visibility Clouds Conditions
10° at 9 knots Greater than 6 miles
  • Scattered at 2,000' AGL
  • Overcast at 4,000' AGL
  • Light Rain
From Dec-16 @ 14:00 to Dec-16 @ 18:00
FM161400 02009KT 4SM -RA BR SCT009 OVC015
Wind Visibility Clouds Conditions
20° at 9 knots 4 miles
  • Scattered at 900' AGL
  • Overcast at 1,500' AGL
  • Light Rain
  • Mist
From Dec-16 @ 18:00 to Dec-17 @ 03:00
FM161800 03007KT 3SM -RA BR SCT004 OVC008
Wind Visibility Clouds Conditions
30° at 7 knots 3 miles
  • Scattered at 400' AGL
  • Overcast at 800' AGL
  • Light Rain
  • Mist
From Dec-17 @ 03:00 to Dec-17 @ 06:00
FM170300 15005KT 5SM BR BKN008 OVC012
Wind Visibility Clouds Conditions
150° at 5 knots 5 miles
  • Broken at 800' AGL
  • Overcast at 1,200' AGL
  • Mist
KMWH 160538Z 1606/1706 01009KT P6SM BKN100 OVC120 FM161100 01009KT P6SM -RA SCT020 OVC040 FM161400 02009KT 4SM -RA BR SCT009 OVC015 FM161800 03007KT 3SM -RA BR SCT004 OVC008 FM170300 15005KT 5SM BR BKN008 OVC012
Issued Dec-16 @ 05:38 UTC
(13 minutes ago)
Valid From Dec-16 @ 06:00 UTC
(in 9 minutes)
Valid To Dec-17 @ 06:00 UTC
(in 24 hours)
Dec-16 @ 06:00 - Dec-16 @ 11:00
Wind Visibility
10° at 9 knots Greater than 6 miles
Clouds
  • Broken at 10,000' AGL
  • Overcast at 12,000' AGL
From Dec-16 @ 11:00 - Dec-16 @ 14:00
Wind Visibility
10° at 9 knots Greater than 6 miles
Clouds
  • Scattered at 2,000' AGL
  • Overcast at 4,000' AGL
Conditions
  • Light Rain
From Dec-16 @ 14:00 - Dec-16 @ 18:00
Wind Visibility
20° at 9 knots 4 miles
Clouds
  • Scattered at 900' AGL
  • Overcast at 1,500' AGL
Conditions
  • Light Rain
  • Mist
From Dec-16 @ 18:00 - Dec-17 @ 03:00
Wind Visibility
30° at 7 knots 3 miles
Clouds
  • Scattered at 400' AGL
  • Overcast at 800' AGL
Conditions
  • Light Rain
  • Mist
From Dec-17 @ 03:00 - Dec-17 @ 06:00
Wind Visibility
150° at 5 knots 5 miles
Clouds
  • Broken at 800' AGL
  • Overcast at 1,200' AGL
Conditions
  • Mist